createdAt,value
2023-05-10T00:01:52.499Z,101773.59
2023-05-10T00:05:53.505Z,101775.13
2023-05-10T00:09:56.936Z,101776.06
2023-05-10T00:13:59.117Z,101769.97
2023-05-10T00:18:00.794Z,101770.25
2023-05-10T00:22:03.567Z,101761.81
2023-05-10T00:26:07.346Z,101767.13
2023-05-10T00:30:09.132Z,101773.69
2023-05-10T00:34:13.361Z,101770.50
2023-05-10T00:38:18.630Z,101772.53
2023-05-10T00:46:41.311Z,101774.19
2023-05-10T00:50:43.389Z,101769.75
2023-05-10T00:54:53.246Z,101767.25
2023-05-10T00:59:02.598Z,101769.66
2023-05-10T01:03:03.962Z,101767.34
2023-05-10T01:07:07.057Z,101758.56
2023-05-10T05:56:34.045Z,101781.31
2023-05-10T06:00:49.152Z,101789.44
2023-05-10T06:10:50.270Z,101770.53
2023-05-10T06:15:58.665Z,101774.41
2023-05-10T06:20:59.530Z,101772.69
2023-05-10T06:25:39.179Z,101769.44
2023-05-10T06:35:08.986Z,101771.81
2023-05-10T06:40:03.440Z,101774.97
2023-05-10T06:44:57.887Z,101773.84
2023-05-10T06:49:44.493Z,101776.56
2023-05-10T06:54:22.427Z,101782.03
2023-05-10T06:58:46.287Z,101787.22
2023-05-10T07:03:06.570Z,101778.69
2023-05-10T07:07:18.778Z,101776.78
2023-05-10T07:11:25.922Z,101780.59
2023-05-10T07:15:30.558Z,101778.91
2023-05-10T07:19:45.227Z,101780.78
2023-05-10T07:23:58.437Z,101776.16
2023-05-10T07:28:16.177Z,101773.75
2023-05-10T07:36:57.014Z,101770.44
2023-05-10T07:41:08.002Z,101765.16
2023-05-10T07:45:43.091Z,101760.72
2023-05-10T07:49:57.925Z,101758.25
2023-05-10T07:54:17.422Z,101759.16
2023-05-10T08:03:08.956Z,101752.28
2023-05-10T08:07:19.641Z,101747.03
2023-05-10T08:11:23.475Z,101752.16
2023-05-10T08:15:40.697Z,101749.59
2023-05-10T08:19:54.539Z,101757.56
2023-05-10T08:23:57.229Z,101752.28
2023-05-10T08:28:03.095Z,101749.69
2023-05-10T08:32:07.662Z,101748.78
2023-05-10T08:40:39.013Z,101747.09
2023-05-10T08:44:43.856Z,101728.63
2023-05-10T08:49:05.285Z,101738.25
2023-05-10T08:53:51.394Z,101738.28
2023-05-10T08:58:07.001Z,101745.28
2023-05-10T09:02:11.489Z,101738.25
2023-05-10T09:10:45.393Z,101742.53
2023-05-10T09:14:50.208Z,101729.38
2023-05-10T09:18:53.524Z,101734.59
2023-05-10T09:22:55.387Z,101735.47
2023-05-10T09:27:00.738Z,101725.63
2023-05-10T09:31:03.539Z,101726.53
2023-05-10T09:35:25.987Z,101711.78
2023-05-10T09:39:38.724Z,101718.72
2023-05-10T09:43:54.268Z,101711.63
2023-05-10T09:47:56.858Z,101701.75
2023-05-10T09:52:08.880Z,101705.41
2023-05-10T09:56:10.660Z,101695.75
2023-05-10T10:00:20.621Z,101697.31
2023-05-10T10:04:22.363Z,101700.84
2023-05-10T10:08:37.961Z,101694.94
2023-05-10T10:12:42.430Z,101691.19
2023-05-10T10:16:55.681Z,101684.63
2023-05-10T10:21:12.459Z,101686.44
2023-05-10T10:25:21.679Z,101688.22
2023-05-10T10:29:28.898Z,101691.13
2023-05-10T10:33:54.741Z,101689.16
2023-05-10T10:38:03.985Z,101667.53
2023-05-10T10:42:05.025Z,101667.50
2023-05-10T10:46:20.544Z,101661.41
2023-05-10T10:50:21.679Z,101663.34
2023-05-10T10:54:32.853Z,101658.22
2023-05-10T10:58:37.698Z,101656.22
2023-05-10T11:02:57.531Z,101646.13
2023-05-10T11:07:19.851Z,101646.16
2023-05-10T11:11:23.153Z,101647.44
2023-05-10T11:15:33.233Z,101643.94
2023-05-10T11:19:35.678Z,101644.47
2023-05-10T11:23:37.144Z,101635.56
2023-05-10T11:27:43.102Z,101633.75
2023-05-10T11:31:48.993Z,101630.25
2023-05-10T11:35:49.656Z,101628.50
2023-05-10T11:39:58.777Z,101613.97
2023-05-10T11:44:11.403Z,101612.66
2023-05-10T11:48:11.850Z,101612.59
2023-05-10T11:52:12.579Z,101611.53
2023-05-10T11:56:20.610Z,101605.50
2023-05-10T12:00:24.086Z,101603.69
2023-05-10T12:04:26.007Z,101597.69
2023-05-10T12:08:29.273Z,101600.47
2023-05-10T12:12:48.745Z,101598.66
2023-05-10T12:17:24.470Z,101597.56
2023-05-10T12:21:37.370Z,101595.38
2023-05-10T12:35:26.183Z,101575.81
2023-05-10T12:40:09.107Z,101565.63
2023-05-10T12:44:22.878Z,101565.19
2023-05-10T12:48:29.969Z,101562.13
2023-05-10T12:52:33.266Z,101556.16
2023-05-10T12:56:33.865Z,101565.78
2023-05-10T13:00:36.084Z,101543.88
2023-05-10T13:04:40.892Z,101541.53
2023-05-10T13:08:43.608Z,101535.41
2023-05-10T13:12:44.052Z,101529.22
2023-05-10T13:16:47.531Z,101523.16
2023-05-10T13:20:48.227Z,101524.84
2023-05-10T13:24:51.388Z,101530.03
2023-05-10T13:29:00.436Z,101531.84
2023-05-10T13:33:01.335Z,101530.84
2023-05-10T13:37:02.545Z,101526.25
2023-05-10T13:41:05.347Z,101521.16
2023-05-10T13:45:12.435Z,101515.31
2023-05-10T13:49:16.854Z,101516.94
2023-05-10T13:53:27.432Z,101510.91
2023-05-10T13:57:58.183Z,101508.88
2023-05-10T14:02:06.394Z,101514.16
2023-05-10T14:06:16.154Z,101512.41
2023-05-10T14:10:23.563Z,101512.38
2023-05-10T14:14:30.383Z,101505.25
2023-05-10T14:18:33.917Z,101508.81
2023-05-10T14:22:35.916Z,101507.06
2023-05-10T14:26:42.709Z,101501.50
2023-05-10T14:30:45.447Z,101503.50
2023-05-10T14:34:44.441Z,101505.47
2023-05-10T14:38:47.916Z,101502.69
2023-05-10T14:42:49.174Z,101502.44
2023-05-10T14:46:53.094Z,101502.34
2023-05-10T14:50:55.166Z,101501.09
2023-05-10T14:54:54.986Z,101501.75
2023-05-10T14:58:59.311Z,101495.72
2023-05-10T15:03:13.823Z,101500.22
2023-05-10T15:07:32.814Z,101500.53
2023-05-10T15:11:53.362Z,101498.50
2023-05-10T15:16:23.003Z,101489.69
2023-05-10T15:20:28.847Z,101491.66
2023-05-10T15:24:35.629Z,101490.28
2023-05-10T15:28:40.059Z,101486.97
2023-05-10T15:33:01.722Z,101496.81
2023-05-10T15:37:12.082Z,101489.72
2023-05-10T15:41:13.228Z,101489.91
2023-05-10T15:45:18.795Z,101499.94
2023-05-10T15:49:19.508Z,101486.00
2023-05-10T15:53:31.540Z,101490.41
2023-05-10T15:57:46.842Z,101486.81
2023-05-10T16:02:02.621Z,101483.16
2023-05-10T16:06:37.967Z,101492.91
2023-05-10T16:10:46.389Z,101493.09
2023-05-10T16:14:49.899Z,101500.41
2023-05-10T16:18:51.307Z,101496.09
2023-05-10T16:23:00.196Z,101502.34
2023-05-10T16:27:09.238Z,101498.94
2023-05-10T16:31:21.210Z,101492.91
2023-05-10T16:35:49.738Z,101512.28
2023-05-10T16:40:10.905Z,101523.69
2023-05-10T16:44:21.914Z,101515.81
2023-05-10T16:48:29.400Z,101519.34
2023-05-10T16:52:37.768Z,101522.84
2023-05-10T16:56:40.968Z,101522.75
2023-05-10T17:00:58.303Z,101521.03
2023-05-10T17:05:39.909Z,101530.69
2023-05-10T17:09:50.087Z,101525.47
2023-05-10T17:13:57.777Z,101529.03
2023-05-10T17:18:18.230Z,101529.91
2023-05-10T17:22:31.536Z,101529.94
2023-05-10T17:26:35.648Z,101532.56
2023-05-10T17:30:42.899Z,101543.13
2023-05-10T17:35:04.168Z,101553.66
2023-05-10T17:39:05.626Z,101548.38
2023-05-10T17:43:08.112Z,101547.50
2023-05-10T17:47:20.687Z,101554.41
2023-05-10T17:51:36.574Z,101555.19
2023-05-10T17:55:40.712Z,101559.53
2023-05-10T17:59:50.613Z,101557.78
2023-05-10T18:03:54.394Z,101563.00
2023-05-10T18:07:59.569Z,101558.56
2023-05-10T18:12:00.729Z,101579.50
2023-05-10T18:16:04.657Z,101578.56
2023-05-10T18:20:05.922Z,101586.47
2023-05-10T18:24:11.914Z,101590.72
2023-05-10T18:28:20.053Z,101595.97
2023-05-10T18:32:26.401Z,101598.56
2023-05-10T18:36:31.617Z,101613.44
2023-05-10T18:40:52.187Z,101612.47
2023-05-10T18:45:00.160Z,101615.06
2023-05-10T18:49:20.751Z,101626.38
2023-05-10T18:53:32.013Z,101633.44
2023-05-10T19:02:14.406Z,101633.03
2023-05-10T19:06:37.677Z,101635.38
2023-05-10T19:10:38.721Z,101643.97
2023-05-10T19:14:53.173Z,101642.84
2023-05-10T19:19:20.146Z,101647.13
2023-05-10T19:23:32.550Z,101651.50
2023-05-10T19:27:36.741Z,101653.16
2023-05-10T19:31:45.268Z,101669.78
2023-05-10T19:35:52.404Z,101667.09
2023-05-10T19:40:09.127Z,101673.97
2023-05-10T19:44:12.077Z,101668.41
2023-05-10T19:48:19.260Z,101667.44
2023-05-10T19:52:29.565Z,101673.50
2023-05-10T19:56:33.086Z,101664.56
2023-05-10T20:00:59.390Z,101660.03
2023-05-10T20:05:04.162Z,101672.97
2023-05-10T20:09:05.447Z,101671.09
2023-05-10T20:13:12.515Z,101661.38
2023-05-10T20:17:27.650Z,101667.31
2023-05-10T20:21:31.514Z,101659.53
2023-05-10T20:25:38.825Z,101661.06
2023-05-10T20:29:52.663Z,101653.06
2023-05-10T20:34:06.495Z,101659.03
2023-05-10T20:38:22.015Z,101659.22
2023-05-10T20:42:23.362Z,101659.56
2023-05-10T20:46:32.115Z,101655.75
2023-05-10T20:50:35.498Z,101668.09
2023-05-10T20:54:37.288Z,101672.84
2023-05-10T20:58:56.117Z,101677.91
2023-05-10T21:03:15.266Z,101684.66
2023-05-10T21:07:21.185Z,101677.50
2023-05-10T21:11:41.553Z,101673.91
2023-05-10T21:15:49.213Z,101676.56
2023-05-10T21:19:53.722Z,101660.66
2023-05-10T21:23:55.061Z,101670.72
2023-05-10T21:28:00.324Z,101671.44
2023-05-10T21:32:01.496Z,101673.06
2023-05-10T21:36:10.678Z,101662.53
2023-05-10T21:40:14.802Z,101663.28
2023-05-10T21:44:19.171Z,101664.88
2023-05-10T21:48:21.673Z,101659.63
2023-05-10T21:52:27.367Z,101668.50
2023-05-10T21:56:49.791Z,101676.16
2023-05-10T22:01:03.057Z,101681.22
2023-05-10T22:05:04.342Z,101679.22
2023-05-10T22:09:08.700Z,101681.59
2023-05-10T22:13:18.573Z,101678.84
2023-05-10T22:17:26.020Z,101682.47
2023-05-10T22:21:38.695Z,101679.22
2023-05-10T22:25:55.354Z,101686.19
2023-05-10T22:30:00.640Z,101681.91
2023-05-10T22:34:04.031Z,101687.75
2023-05-10T22:38:15.353Z,101678.97
2023-05-10T22:42:19.578Z,101689.00
2023-05-10T22:46:43.797Z,101678.53
2023-05-10T22:50:45.024Z,101676.81
2023-05-10T22:54:45.968Z,101673.16
2023-05-10T22:58:47.335Z,101665.22
2023-05-10T23:02:57.452Z,101680.03
2023-05-10T23:07:06.433Z,101683.22
2023-05-10T23:11:19.162Z,101670.63
2023-05-10T23:20:22.427Z,101667.41
2023-05-10T23:24:29.193Z,101666.53
2023-05-10T23:33:19.408Z,101676.97
2023-05-10T23:37:47.188Z,101670.97
2023-05-10T23:41:57.870Z,101676.06
2023-05-10T23:46:09.823Z,101663.66
2023-05-10T23:51:01.525Z,101668.09
2023-05-10T23:55:18.641Z,101669.91
2023-05-10T23:59:24.505Z,101668.97
